<?xml version="1.0" encoding="UTF-8" standalone="no" ?>
<gpx xmlns="http://www.topografix.com/GPX/1/1" xmlns:xsi="http://www.w3.org/2001/XMLSchema-instance" xsi:schemaLocation="http://www.topografix.com/GPX/1/1 http://www.topografix.com/GPX/1/1/gpx.xsd" version="1.1" creator="VisuGPX - https://www.visugpx.com">
  <metadata>
    <name>Autour de l'Abbaye de Valcroissant</name>
  </metadata>
  <wpt lat="44.74541" lon="5.43258">
    <ele>668</ele>
    <name><![CDATA[Parking de l'Abbaye de Valcroissant]]></name>
  </wpt>
  <wpt lat="44.7421" lon="5.42552">
    <ele>609</ele>
    <name><![CDATA[ Pas de la Roche]]></name>
  </wpt>
  <wpt lat="44.73052" lon="5.43776">
    <ele>849</ele>
    <name><![CDATA[Col de l'Abbaye 849m]]></name>
  </wpt>
  <wpt lat="44.73301" lon="5.44431">
    <ele>903</ele>
    <name><![CDATA[Col Fauchard 909m]]></name>
  </wpt>
  <wpt lat="44.7379" lon="5.45062">
    <ele>1030</ele>
    <name><![CDATA[Traversée d'un torrent]]></name>
  </wpt>
  <wpt lat="44.7408" lon="5.44337">
    <ele>1068</ele>
    <name><![CDATA[Point le plus haut de la rando]]></name>
  </wpt>
  <wpt lat="44.74124" lon="5.44209">
    <ele>1039</ele>
    <name><![CDATA[Point le plus haut de la randonnée]]></name>
  </wpt>
  <wpt lat="44.74533" lon="5.44313">
    <ele>954</ele>
    <name><![CDATA[Croisement de sentiers]]></name>
  </wpt>
  <wpt lat="44.75146" lon="5.44421">
    <ele>1015</ele>
    <name><![CDATA[Les 4 chemins]]></name>
  </wpt>
  <wpt lat="44.75056" lon="5.42421">
    <ele>721</ele>
    <name><![CDATA[Bifurcation aller/retour]]></name>
  </wpt>
  <wpt lat="44.75" lon="5.42146">
    <ele>739</ele>
    <name><![CDATA[Ancienne ferme de Serre-Jean]]></name>
  </wpt>
  <wpt lat="44.74549" lon="5.43236">
    <ele>665</ele>
    <name><![CDATA[Parking de l'Abbaye de Valcroissant]]></name>
  </wpt>
  <trk>
    <name><![CDATA[Autour de l'Abbaye de Valcroissant]]></name>
    <trkseg>
      <trkpt lat="44.74541" lon="5.43258">
        <ele>668</ele>
        <time>2017-05-15T11:02:13+02:00</time>
      </trkpt>
      <trkpt lat="44.7454" lon="5.43235">
        <ele>665</ele>
        <time>2021-10-11T19:01:26+02:00</time>
      </trkpt>
      <trkpt lat="44.7453" lon="5.43215">
        <ele>663</ele>
        <time>2021-10-11T19:01:31+02:00</time>
      </trkpt>
      <trkpt lat="44.74526" lon="5.432">
        <ele>662</ele>
        <time>2021-10-11T19:01:36+02:00</time>
      </trkpt>
      <trkpt lat="44.74523" lon="5.43185">
        <ele>659</ele>
        <time>2021-10-11T19:01:41+02:00</time>
      </trkpt>
      <trkpt lat="44.7452" lon="5.43167">
        <ele>657</ele>
        <time>2021-10-11T19:01:46+02:00</time>
      </trkpt>
      <trkpt lat="44.74515" lon="5.43151">
        <ele>655</ele>
        <time>2021-10-11T19:01:51+02:00</time>
      </trkpt>
      <trkpt lat="44.74507" lon="5.43129">
        <ele>651</ele>
        <time>2021-10-11T19:01:56+02:00</time>
      </trkpt>
      <trkpt lat="44.74501" lon="5.43108">
        <ele>649</ele>
        <time>2021-10-11T19:02:01+02:00</time>
      </trkpt>
      <trkpt lat="44.74491" lon="5.43083">
        <ele>646</ele>
        <time>2021-10-11T19:02:06+02:00</time>
      </trkpt>
      <trkpt lat="44.74481" lon="5.43058">
        <ele>645</ele>
        <time>2021-10-11T19:02:11+02:00</time>
      </trkpt>
      <trkpt lat="44.74471" lon="5.4303">
        <ele>642</ele>
        <time>2021-10-11T19:02:16+02:00</time>
      </trkpt>
      <trkpt lat="44.74463" lon="5.43004">
        <ele>639</ele>
        <time>2021-10-11T19:02:21+02:00</time>
      </trkpt>
      <trkpt lat="44.74454" lon="5.42979">
        <ele>637</ele>
        <time>2021-10-11T19:02:26+02:00</time>
      </trkpt>
      <trkpt lat="44.74447" lon="5.42954">
        <ele>635</ele>
        <time>2021-10-11T19:02:31+02:00</time>
      </trkpt>
      <trkpt lat="44.74424" lon="5.42904">
        <ele>630</ele>
        <time>2021-10-11T19:02:36+02:00</time>
      </trkpt>
      <trkpt lat="44.74402" lon="5.42848">
        <ele>625</ele>
        <time>2021-10-11T19:02:41+02:00</time>
      </trkpt>
      <trkpt lat="44.74376" lon="5.42794">
        <ele>620</ele>
        <time>2021-10-11T19:02:46+02:00</time>
      </trkpt>
      <trkpt lat="44.74371" lon="5.4277">
        <ele>618</ele>
        <time>2021-10-11T19:02:51+02:00</time>
      </trkpt>
      <trkpt lat="44.74363" lon="5.42748">
        <ele>617</ele>
        <time>2021-10-11T19:02:56+02:00</time>
      </trkpt>
      <trkpt lat="44.74348" lon="5.42734">
        <ele>615</ele>
        <time>2021-10-11T19:03:01+02:00</time>
      </trkpt>
      <trkpt lat="44.7433" lon="5.427">
        <ele>611</ele>
        <time>2021-10-11T19:03:06+02:00</time>
      </trkpt>
      <trkpt lat="44.74316" lon="5.42685">
        <ele>609</ele>
        <time>2021-10-11T19:03:11+02:00</time>
      </trkpt>
      <trkpt lat="44.74303" lon="5.42677">
        <ele>608</ele>
        <time>2021-10-11T19:03:16+02:00</time>
      </trkpt>
      <trkpt lat="44.74278" lon="5.4267">
        <ele>608</ele>
        <time>2021-10-11T19:03:21+02:00</time>
      </trkpt>
      <trkpt lat="44.74255" lon="5.42653">
        <ele>606</ele>
        <time>2021-10-11T19:03:26+02:00</time>
      </trkpt>
      <trkpt lat="44.74244" lon="5.42634">
        <ele>606</ele>
        <time>2021-10-11T19:03:31+02:00</time>
      </trkpt>
      <trkpt lat="44.74234" lon="5.42614">
        <ele>606</ele>
        <time>2021-10-11T19:03:36+02:00</time>
      </trkpt>
      <trkpt lat="44.74227" lon="5.42586">
        <ele>605</ele>
        <time>2021-10-11T19:03:41+02:00</time>
      </trkpt>
      <trkpt lat="44.7421" lon="5.42552">
        <ele>609</ele>
        <time>2021-10-11T19:03:46+02:00</time>
      </trkpt>
      <trkpt lat="44.74197" lon="5.4255">
        <ele>610</ele>
        <time>2021-10-11T19:03:51+02:00</time>
      </trkpt>
      <trkpt lat="44.7419" lon="5.42569">
        <ele>611</ele>
        <time>2021-10-11T19:03:56+02:00</time>
      </trkpt>
      <trkpt lat="44.74185" lon="5.42618">
        <ele>613</ele>
        <time>2021-10-11T19:04:01+02:00</time>
      </trkpt>
      <trkpt lat="44.74179" lon="5.42657">
        <ele>616</ele>
        <time>2021-10-11T19:04:06+02:00</time>
      </trkpt>
      <trkpt lat="44.74164" lon="5.42724">
        <ele>621</ele>
        <time>2017-05-15T11:02:46+02:00</time>
      </trkpt>
      <trkpt lat="44.7415" lon="5.42751">
        <ele>627</ele>
        <time>2017-05-15T11:03:08+02:00</time>
      </trkpt>
      <trkpt lat="44.74148" lon="5.42784">
        <ele>628</ele>
        <time>2017-05-15T11:03:42+02:00</time>
      </trkpt>
      <trkpt lat="44.74137" lon="5.42812">
        <ele>633</ele>
        <time>2017-05-15T11:04:03+02:00</time>
      </trkpt>
      <trkpt lat="44.74126" lon="5.42841">
        <ele>636</ele>
        <time>2017-05-15T11:04:43+02:00</time>
      </trkpt>
      <trkpt lat="44.7411" lon="5.42865">
        <ele>640</ele>
        <time>2017-05-15T11:05:29+02:00</time>
      </trkpt>
      <trkpt lat="44.74091" lon="5.42887">
        <ele>644</ele>
        <time>2017-05-15T11:06:09+02:00</time>
      </trkpt>
      <trkpt lat="44.74079" lon="5.42914">
        <ele>645</ele>
        <time>2017-05-15T11:07:45+02:00</time>
      </trkpt>
      <trkpt lat="44.74061" lon="5.42936">
        <ele>647</ele>
        <time>2017-05-15T11:07:59+02:00</time>
      </trkpt>
      <trkpt lat="44.74042" lon="5.42954">
        <ele>649</ele>
        <time>2017-05-15T11:08:31+02:00</time>
      </trkpt>
      <trkpt lat="44.7402" lon="5.42963">
        <ele>653</ele>
        <time>2017-05-15T11:08:55+02:00</time>
      </trkpt>
      <trkpt lat="44.73998" lon="5.42961">
        <ele>659</ele>
        <time>2017-05-15T11:09:12+02:00</time>
      </trkpt>
      <trkpt lat="44.73977" lon="5.42947">
        <ele>665</ele>
        <time>2017-05-15T11:09:36+02:00</time>
      </trkpt>
      <trkpt lat="44.73957" lon="5.42961">
        <ele>668</ele>
        <time>2017-05-15T11:10:09+02:00</time>
      </trkpt>
      <trkpt lat="44.73935" lon="5.42972">
        <ele>671</ele>
        <time>2017-05-15T11:10:38+02:00</time>
      </trkpt>
      <trkpt lat="44.73917" lon="5.4299">
        <ele>672</ele>
        <time>2017-05-15T11:10:55+02:00</time>
      </trkpt>
      <trkpt lat="44.739" lon="5.43012">
        <ele>673</ele>
        <time>2017-05-15T11:11:17+02:00</time>
      </trkpt>
      <trkpt lat="44.73884" lon="5.43035">
        <ele>674</ele>
        <time>2017-05-15T11:11:37+02:00</time>
      </trkpt>
      <trkpt lat="44.73866" lon="5.43053">
        <ele>676</ele>
        <time>2017-05-15T11:12:04+02:00</time>
      </trkpt>
      <trkpt lat="44.73846" lon="5.43068">
        <ele>678</ele>
        <time>2017-05-15T11:12:34+02:00</time>
      </trkpt>
      <trkpt lat="44.73823" lon="5.43076">
        <ele>681</ele>
        <time>2017-05-15T11:13:07+02:00</time>
      </trkpt>
      <trkpt lat="44.73798" lon="5.43078">
        <ele>685</ele>
        <time>2017-05-15T11:13:29+02:00</time>
      </trkpt>
      <trkpt lat="44.73775" lon="5.43076">
        <ele>689</ele>
        <time>2017-05-15T11:13:58+02:00</time>
      </trkpt>
      <trkpt lat="44.73753" lon="5.43087">
        <ele>691</ele>
        <time>2017-05-15T11:14:58+02:00</time>
      </trkpt>
      <trkpt lat="44.73728" lon="5.43092">
        <ele>695</ele>
        <time>2017-05-15T11:15:30+02:00</time>
      </trkpt>
      <trkpt lat="44.73705" lon="5.43092">
        <ele>699</ele>
        <time>2017-05-15T11:16:11+02:00</time>
      </trkpt>
      <trkpt lat="44.73681" lon="5.43091">
        <ele>704</ele>
        <time>2017-05-15T11:16:54+02:00</time>
      </trkpt>
      <trkpt lat="44.73659" lon="5.43096">
        <ele>709</ele>
        <time>2017-05-15T11:17:16+02:00</time>
      </trkpt>
      <trkpt lat="44.73637" lon="5.43107">
        <ele>713</ele>
        <time>2017-05-15T11:18:46+02:00</time>
      </trkpt>
      <trkpt lat="44.73615" lon="5.43119">
        <ele>717</ele>
        <time>2017-05-15T11:19:18+02:00</time>
      </trkpt>
      <trkpt lat="44.73595" lon="5.43136">
        <ele>719</ele>
        <time>2017-05-15T11:19:35+02:00</time>
      </trkpt>
      <trkpt lat="44.73576" lon="5.43155">
        <ele>720</ele>
        <time>2017-05-15T11:19:52+02:00</time>
      </trkpt>
      <trkpt lat="44.73561" lon="5.43179">
        <ele>721</ele>
        <time>2017-05-15T11:20:17+02:00</time>
      </trkpt>
      <trkpt lat="44.73537" lon="5.43189">
        <ele>725</ele>
        <time>2017-05-15T11:20:43+02:00</time>
      </trkpt>
      <trkpt lat="44.73518" lon="5.43208">
        <ele>728</ele>
        <time>2017-05-15T11:21:07+02:00</time>
      </trkpt>
      <trkpt lat="44.73499" lon="5.43225">
        <ele>731</ele>
        <time>2017-05-15T11:22:01+02:00</time>
      </trkpt>
      <trkpt lat="44.73476" lon="5.43237">
        <ele>736</ele>
        <time>2017-05-15T11:22:45+02:00</time>
      </trkpt>
      <trkpt lat="44.73453" lon="5.43238">
        <ele>743</ele>
        <time>2017-05-15T11:23:33+02:00</time>
      </trkpt>
      <trkpt lat="44.7343" lon="5.43246">
        <ele>748</ele>
        <time>2017-05-15T11:25:06+02:00</time>
      </trkpt>
      <trkpt lat="44.73408" lon="5.43256">
        <ele>754</ele>
        <time>2017-05-15T11:25:29+02:00</time>
      </trkpt>
      <trkpt lat="44.73387" lon="5.43247">
        <ele>760</ele>
        <time>2017-05-15T11:25:43+02:00</time>
      </trkpt>
      <trkpt lat="44.73373" lon="5.43219">
        <ele>766</ele>
        <time>2017-05-15T11:26:32+02:00</time>
      </trkpt>
      <trkpt lat="44.73349" lon="5.43227">
        <ele>771</ele>
        <time>2017-05-15T11:27:09+02:00</time>
      </trkpt>
      <trkpt lat="44.7333" lon="5.43245">
        <ele>776</ele>
        <time>2017-05-15T11:28:12+02:00</time>
      </trkpt>
      <trkpt lat="44.73313" lon="5.43267">
        <ele>783</ele>
        <time>2017-05-15T11:28:53+02:00</time>
      </trkpt>
      <trkpt lat="44.73299" lon="5.43293">
        <ele>789</ele>
        <time>2017-05-15T11:29:35+02:00</time>
      </trkpt>
      <trkpt lat="44.73292" lon="5.43323">
        <ele>791</ele>
        <time>2017-05-15T11:30:26+02:00</time>
      </trkpt>
      <trkpt lat="44.73283" lon="5.43354">
        <ele>795</ele>
        <time>2017-05-15T11:31:17+02:00</time>
      </trkpt>
      <trkpt lat="44.73272" lon="5.43383">
        <ele>799</ele>
        <time>2017-05-15T11:32:19+02:00</time>
      </trkpt>
      <trkpt lat="44.73252" lon="5.43402">
        <ele>809</ele>
        <time>2017-05-15T11:33:10+02:00</time>
      </trkpt>
      <trkpt lat="44.73238" lon="5.43429">
        <ele>815</ele>
        <time>2017-05-15T11:34:18+02:00</time>
      </trkpt>
      <trkpt lat="44.73225" lon="5.43494">
        <ele>817</ele>
        <time>2017-05-15T11:35:36+02:00</time>
      </trkpt>
      <trkpt lat="44.73205" lon="5.43508">
        <ele>823</ele>
        <time>2017-05-15T11:38:24+02:00</time>
      </trkpt>
      <trkpt lat="44.73182" lon="5.43514">
        <ele>830</ele>
        <time>2017-05-15T11:39:03+02:00</time>
      </trkpt>
      <trkpt lat="44.7317" lon="5.43524">
        <ele>833</ele>
        <time>2017-05-15T11:39:22+02:00</time>
      </trkpt>
      <trkpt lat="44.73168" lon="5.43544">
        <ele>832</ele>
        <time>2017-05-15T11:39:43+02:00</time>
      </trkpt>
      <trkpt lat="44.73165" lon="5.43576">
        <ele>830</ele>
        <time>2017-05-15T11:40:24+02:00</time>
      </trkpt>
      <trkpt lat="44.73155" lon="5.43606">
        <ele>830</ele>
        <time>2017-05-15T11:41:03+02:00</time>
      </trkpt>
      <trkpt lat="44.73134" lon="5.43616">
        <ele>836</ele>
        <time>2017-05-15T11:41:21+02:00</time>
      </trkpt>
      <trkpt lat="44.73119" lon="5.43591">
        <ele>841</ele>
        <time>2017-05-15T11:42:08+02:00</time>
      </trkpt>
      <trkpt lat="44.73098" lon="5.43579">
        <ele>847</ele>
        <time>2017-05-15T11:44:04+02:00</time>
      </trkpt>
      <trkpt lat="44.73078" lon="5.43596">
        <ele>851</ele>
        <time>2017-05-15T11:44:39+02:00</time>
      </trkpt>
      <trkpt lat="44.73061" lon="5.43619">
        <ele>854</ele>
        <time>2017-05-15T11:45:06+02:00</time>
      </trkpt>
      <trkpt lat="44.73055" lon="5.4365">
        <ele>853</ele>
        <time>2017-05-15T11:45:18+02:00</time>
      </trkpt>
      <trkpt lat="44.73053" lon="5.43681">
        <ele>852</ele>
        <time>2017-05-15T11:45:59+02:00</time>
      </trkpt>
      <trkpt lat="44.73044" lon="5.43713">
        <ele>851</ele>
        <time>2017-05-15T11:46:35+02:00</time>
      </trkpt>
      <trkpt lat="44.73048" lon="5.43745">
        <ele>849</ele>
        <time>2017-05-15T11:47:00+02:00</time>
      </trkpt>
      <trkpt lat="44.73052" lon="5.43776">
        <ele>849</ele>
        <time>2017-05-15T11:47:19+02:00</time>
      </trkpt>
      <trkpt lat="44.73069" lon="5.438">
        <ele>853</ele>
        <time>2017-05-15T11:55:06+02:00</time>
      </trkpt>
      <trkpt lat="44.73092" lon="5.43805">
        <ele>854</ele>
        <time>2017-05-15T11:55:19+02:00</time>
      </trkpt>
      <trkpt lat="44.73116" lon="5.43816">
        <ele>853</ele>
        <time>2017-05-15T11:55:44+02:00</time>
      </trkpt>
      <trkpt lat="44.73138" lon="5.43822">
        <ele>852</ele>
        <time>2017-05-15T11:56:13+02:00</time>
      </trkpt>
      <trkpt lat="44.73159" lon="5.43838">
        <ele>856</ele>
        <time>2017-05-15T11:56:59+02:00</time>
      </trkpt>
      <trkpt lat="44.73181" lon="5.43845">
        <ele>855</ele>
        <time>2017-05-15T11:57:07+02:00</time>
      </trkpt>
      <trkpt lat="44.73203" lon="5.43861">
        <ele>857</ele>
        <time>2017-05-15T11:57:40+02:00</time>
      </trkpt>
      <trkpt lat="44.73226" lon="5.4387">
        <ele>856</ele>
        <time>2017-05-15T11:57:58+02:00</time>
      </trkpt>
      <trkpt lat="44.73245" lon="5.43888">
        <ele>858</ele>
        <time>2017-05-15T11:58:14+02:00</time>
      </trkpt>
      <trkpt lat="44.73266" lon="5.43905">
        <ele>858</ele>
        <time>2017-05-15T11:58:54+02:00</time>
      </trkpt>
      <trkpt lat="44.73272" lon="5.43935">
        <ele>864</ele>
        <time>2017-05-15T11:59:18+02:00</time>
      </trkpt>
      <trkpt lat="44.73273" lon="5.43968">
        <ele>870</ele>
        <time>2017-05-15T11:59:42+02:00</time>
      </trkpt>
      <trkpt lat="44.73268" lon="5.43999">
        <ele>879</ele>
        <time>2017-05-15T12:00:10+02:00</time>
      </trkpt>
      <trkpt lat="44.73273" lon="5.44031">
        <ele>880</ele>
        <time>2017-05-15T12:00:37+02:00</time>
      </trkpt>
      <trkpt lat="44.73274" lon="5.44063">
        <ele>884</ele>
        <time>2017-05-15T12:00:56+02:00</time>
      </trkpt>
      <trkpt lat="44.73283" lon="5.44092">
        <ele>881</ele>
        <time>2017-05-15T12:01:37+02:00</time>
      </trkpt>
      <trkpt lat="44.73283" lon="5.44124">
        <ele>883</ele>
        <time>2017-05-15T12:02:05+02:00</time>
      </trkpt>
      <trkpt lat="44.73292" lon="5.44154">
        <ele>881</ele>
        <time>2017-05-15T12:02:46+02:00</time>
      </trkpt>
      <trkpt lat="44.73295" lon="5.44186">
        <ele>882</ele>
        <time>2017-05-15T12:03:13+02:00</time>
      </trkpt>
      <trkpt lat="44.73291" lon="5.44219">
        <ele>887</ele>
        <time>2017-05-15T12:03:34+02:00</time>
      </trkpt>
      <trkpt lat="44.73288" lon="5.44251">
        <ele>892</ele>
        <time>2017-05-15T12:04:14+02:00</time>
      </trkpt>
      <trkpt lat="44.73299" lon="5.4428">
        <ele>892</ele>
        <time>2017-05-15T12:04:54+02:00</time>
      </trkpt>
      <trkpt lat="44.73307" lon="5.44311">
        <ele>894</ele>
        <time>2017-05-15T12:05:18+02:00</time>
      </trkpt>
      <trkpt lat="44.73323" lon="5.44335">
        <ele>896</ele>
        <time>2017-05-15T12:05:48+02:00</time>
      </trkpt>
      <trkpt lat="44.73317" lon="5.4438">
        <ele>899</ele>
        <time>2017-05-15T12:07:03+02:00</time>
      </trkpt>
      <trkpt lat="44.73322" lon="5.44411">
        <ele>901</ele>
        <time>2017-05-15T12:07:32+02:00</time>
      </trkpt>
      <trkpt lat="44.73301" lon="5.44431">
        <ele>903</ele>
        <time>2017-05-15T12:07:56+02:00</time>
      </trkpt>
      <trkpt lat="44.73283" lon="5.44451">
        <ele>905</ele>
        <time>2017-05-15T12:09:47+02:00</time>
      </trkpt>
      <trkpt lat="44.73283" lon="5.44483">
        <ele>909</ele>
        <time>2017-05-15T12:15:33+02:00</time>
      </trkpt>
      <trkpt lat="44.73302" lon="5.44519">
        <ele>917</ele>
        <time>2017-05-15T12:16:49+02:00</time>
      </trkpt>
      <trkpt lat="44.73318" lon="5.44545">
        <ele>926</ele>
        <time>2017-05-15T12:17:31+02:00</time>
      </trkpt>
      <trkpt lat="44.73337" lon="5.44566">
        <ele>932</ele>
        <time>2017-05-15T12:17:47+02:00</time>
      </trkpt>
      <trkpt lat="44.73361" lon="5.44579">
        <ele>926</ele>
        <time>2017-05-15T12:18:19+02:00</time>
      </trkpt>
      <trkpt lat="44.73379" lon="5.44604">
        <ele>930</ele>
        <time>2017-05-15T12:19:56+02:00</time>
      </trkpt>
      <trkpt lat="44.73401" lon="5.44666">
        <ele>950</ele>
        <time>2017-05-15T12:20:28+02:00</time>
      </trkpt>
      <trkpt lat="44.73417" lon="5.4469">
        <ele>951</ele>
        <time>2017-05-15T12:20:47+02:00</time>
      </trkpt>
      <trkpt lat="44.73437" lon="5.44707">
        <ele>947</ele>
        <time>2017-05-15T12:21:02+02:00</time>
      </trkpt>
      <trkpt lat="44.73447" lon="5.44737">
        <ele>953</ele>
        <time>2017-05-15T12:21:44+02:00</time>
      </trkpt>
      <trkpt lat="44.73449" lon="5.44769">
        <ele>965</ele>
        <time>2017-05-15T12:21:58+02:00</time>
      </trkpt>
      <trkpt lat="44.73462" lon="5.44797">
        <ele>967</ele>
        <time>2017-05-15T12:22:30+02:00</time>
      </trkpt>
      <trkpt lat="44.73473" lon="5.4483">
        <ele>970</ele>
        <time>2017-05-15T12:23:21+02:00</time>
      </trkpt>
      <trkpt lat="44.73526" lon="5.44914">
        <ele>955</ele>
        <time>2021-10-11T19:13:16+02:00</time>
      </trkpt>
      <trkpt lat="44.73568" lon="5.44974">
        <ele>942</ele>
        <time>2021-10-11T19:13:21+02:00</time>
      </trkpt>
      <trkpt lat="44.73599" lon="5.45002">
        <ele>940</ele>
        <time>2017-05-15T12:32:58+02:00</time>
      </trkpt>
      <trkpt lat="44.73628" lon="5.45044">
        <ele>958</ele>
        <time>2017-05-15T12:36:22+02:00</time>
      </trkpt>
      <trkpt lat="44.7365" lon="5.45032">
        <ele>952</ele>
        <time>2017-05-15T12:37:32+02:00</time>
      </trkpt>
      <trkpt lat="44.73678" lon="5.45031">
        <ele>958</ele>
        <time>2017-05-15T12:37:51+02:00</time>
      </trkpt>
      <trkpt lat="44.73704" lon="5.45038">
        <ele>975</ele>
        <time>2017-05-15T12:38:23+02:00</time>
      </trkpt>
      <trkpt lat="44.73728" lon="5.4504">
        <ele>988</ele>
        <time>2017-05-15T12:38:34+02:00</time>
      </trkpt>
      <trkpt lat="44.7379" lon="5.45062">
        <ele>1030</ele>
        <time>2017-05-15T12:40:08+02:00</time>
      </trkpt>
      <trkpt lat="44.7379" lon="5.45015">
        <ele>1017</ele>
        <time>2021-10-11T19:14:01+02:00</time>
      </trkpt>
      <trkpt lat="44.73769" lon="5.44974">
        <ele>993</ele>
        <time>2017-05-15T12:42:54+02:00</time>
      </trkpt>
      <trkpt lat="44.73793" lon="5.44961">
        <ele>1007</ele>
        <time>2021-10-11T19:14:11+02:00</time>
      </trkpt>
      <trkpt lat="44.7381" lon="5.44951">
        <ele>1016</ele>
        <time>2017-05-15T12:47:14+02:00</time>
      </trkpt>
      <trkpt lat="44.73812" lon="5.44925">
        <ele>1012</ele>
        <time>2021-10-11T19:14:21+02:00</time>
      </trkpt>
      <trkpt lat="44.73804" lon="5.4491">
        <ele>1003</ele>
        <time>2017-05-15T12:47:27+02:00</time>
      </trkpt>
      <trkpt lat="44.73824" lon="5.44894">
        <ele>1012</ele>
        <time>2017-05-15T12:48:28+02:00</time>
      </trkpt>
      <trkpt lat="44.73841" lon="5.44872">
        <ele>1018</ele>
        <time>2017-05-15T12:48:55+02:00</time>
      </trkpt>
      <trkpt lat="44.73853" lon="5.44831">
        <ele>1014</ele>
        <time>2021-10-11T19:14:41+02:00</time>
      </trkpt>
      <trkpt lat="44.73883" lon="5.44797">
        <ele>1024</ele>
        <time>2017-05-15T12:50:34+02:00</time>
      </trkpt>
      <trkpt lat="44.73904" lon="5.44784">
        <ele>1034</ele>
        <time>2017-05-15T12:51:02+02:00</time>
      </trkpt>
      <trkpt lat="44.73931" lon="5.44769">
        <ele>1048</ele>
        <time>2017-05-15T12:51:41+02:00</time>
      </trkpt>
      <trkpt lat="44.73953" lon="5.44704">
        <ele>1050</ele>
        <time>2021-10-11T19:15:01+02:00</time>
      </trkpt>
      <trkpt lat="44.73965" lon="5.44631">
        <ele>1045</ele>
        <time>2017-05-15T12:56:58+02:00</time>
      </trkpt>
      <trkpt lat="44.74009" lon="5.44604">
        <ele>1072</ele>
        <time>2017-05-15T12:57:19+02:00</time>
      </trkpt>
      <trkpt lat="44.74005" lon="5.44548">
        <ele>1066</ele>
        <time>2021-10-11T19:15:16+02:00</time>
      </trkpt>
      <trkpt lat="44.7399" lon="5.44486">
        <ele>1053</ele>
        <time>2017-05-15T13:00:13+02:00</time>
      </trkpt>
      <trkpt lat="44.73986" lon="5.44454">
        <ele>1045</ele>
        <time>2017-05-15T13:02:27+02:00</time>
      </trkpt>
      <trkpt lat="44.74007" lon="5.44441">
        <ele>1058</ele>
        <time>2017-05-15T13:04:00+02:00</time>
      </trkpt>
      <trkpt lat="44.74042" lon="5.4438">
        <ele>1060</ele>
        <time>2021-10-11T19:15:36+02:00</time>
      </trkpt>
      <trkpt lat="44.7408" lon="5.44337">
        <ele>1068</ele>
        <time>2017-05-15T14:46:27+02:00</time>
      </trkpt>
      <trkpt lat="44.74092" lon="5.44311">
        <ele>1063</ele>
        <time>2017-05-15T14:47:19+02:00</time>
      </trkpt>
      <trkpt lat="44.74104" lon="5.44282">
        <ele>1056</ele>
        <time>2017-05-15T14:47:39+02:00</time>
      </trkpt>
      <trkpt lat="44.74098" lon="5.44251">
        <ele>1048</ele>
        <time>2017-05-15T14:48:01+02:00</time>
      </trkpt>
      <trkpt lat="44.74102" lon="5.4422">
        <ele>1041</ele>
        <time>2017-05-15T14:48:29+02:00</time>
      </trkpt>
      <trkpt lat="44.74124" lon="5.44209">
        <ele>1039</ele>
        <time>2017-05-15T14:49:13+02:00</time>
      </trkpt>
      <trkpt lat="44.74142" lon="5.44228">
        <ele>1044</ele>
        <time>2017-05-15T14:49:45+02:00</time>
      </trkpt>
      <trkpt lat="44.74159" lon="5.44249">
        <ele>1049</ele>
        <time>2017-05-15T14:50:02+02:00</time>
      </trkpt>
      <trkpt lat="44.74174" lon="5.44273">
        <ele>1050</ele>
        <time>2017-05-15T14:50:21+02:00</time>
      </trkpt>
      <trkpt lat="44.74191" lon="5.44295">
        <ele>1045</ele>
        <time>2017-05-15T14:50:46+02:00</time>
      </trkpt>
      <trkpt lat="44.74205" lon="5.44326">
        <ele>1045</ele>
        <time>2017-05-15T14:51:16+02:00</time>
      </trkpt>
      <trkpt lat="44.74217" lon="5.44357">
        <ele>1048</ele>
        <time>2017-05-15T14:51:46+02:00</time>
      </trkpt>
      <trkpt lat="44.74238" lon="5.44376">
        <ele>1043</ele>
        <time>2017-05-15T14:52:28+02:00</time>
      </trkpt>
      <trkpt lat="44.74257" lon="5.44395">
        <ele>1042</ele>
        <time>2017-05-15T14:52:36+02:00</time>
      </trkpt>
      <trkpt lat="44.74281" lon="5.4439">
        <ele>1037</ele>
        <time>2017-05-15T14:52:57+02:00</time>
      </trkpt>
      <trkpt lat="44.74305" lon="5.44395">
        <ele>1035</ele>
        <time>2017-05-15T14:53:19+02:00</time>
      </trkpt>
      <trkpt lat="44.74318" lon="5.44368">
        <ele>1022</ele>
        <time>2017-05-15T14:53:41+02:00</time>
      </trkpt>
      <trkpt lat="44.74337" lon="5.44347">
        <ele>1010</ele>
        <time>2017-05-15T14:54:09+02:00</time>
      </trkpt>
      <trkpt lat="44.74362" lon="5.44345">
        <ele>1010</ele>
        <time>2017-05-15T14:54:45+02:00</time>
      </trkpt>
      <trkpt lat="44.74385" lon="5.44338">
        <ele>1006</ele>
        <time>2017-05-15T14:55:01+02:00</time>
      </trkpt>
      <trkpt lat="44.74407" lon="5.44331">
        <ele>1004</ele>
        <time>2017-05-15T14:56:23+02:00</time>
      </trkpt>
      <trkpt lat="44.74429" lon="5.44321">
        <ele>995</ele>
        <time>2017-05-15T14:56:52+02:00</time>
      </trkpt>
      <trkpt lat="44.74448" lon="5.44302">
        <ele>980</ele>
        <time>2017-05-15T14:57:12+02:00</time>
      </trkpt>
      <trkpt lat="44.74468" lon="5.4432">
        <ele>986</ele>
        <time>2017-05-15T14:57:46+02:00</time>
      </trkpt>
      <trkpt lat="44.74486" lon="5.44346">
        <ele>992</ele>
        <time>2017-05-15T14:58:17+02:00</time>
      </trkpt>
      <trkpt lat="44.74498" lon="5.44374">
        <ele>995</ele>
        <time>2017-05-15T14:58:35+02:00</time>
      </trkpt>
      <trkpt lat="44.74509" lon="5.44402">
        <ele>995</ele>
        <time>2017-05-15T14:59:05+02:00</time>
      </trkpt>
      <trkpt lat="44.74525" lon="5.44428">
        <ele>993</ele>
        <time>2017-05-15T14:59:26+02:00</time>
      </trkpt>
      <trkpt lat="44.74543" lon="5.44408">
        <ele>976</ele>
        <time>2017-05-15T15:00:22+02:00</time>
      </trkpt>
      <trkpt lat="44.74543" lon="5.44376">
        <ele>967</ele>
        <time>2017-05-15T15:00:55+02:00</time>
      </trkpt>
      <trkpt lat="44.74539" lon="5.44343">
        <ele>960</ele>
        <time>2017-05-15T15:01:27+02:00</time>
      </trkpt>
      <trkpt lat="44.74533" lon="5.44313">
        <ele>954</ele>
        <time>2017-05-15T15:01:56+02:00</time>
      </trkpt>
      <trkpt lat="44.74524" lon="5.44282">
        <ele>947</ele>
        <time>2017-05-15T15:02:15+02:00</time>
      </trkpt>
      <trkpt lat="44.74543" lon="5.44299">
        <ele>942</ele>
        <time>2017-05-15T15:03:10+02:00</time>
      </trkpt>
      <trkpt lat="44.74552" lon="5.44331">
        <ele>948</ele>
        <time>2017-05-15T15:03:29+02:00</time>
      </trkpt>
      <trkpt lat="44.74563" lon="5.44359">
        <ele>949</ele>
        <time>2017-05-15T15:04:06+02:00</time>
      </trkpt>
      <trkpt lat="44.74573" lon="5.44388">
        <ele>951</ele>
        <time>2017-05-15T15:04:23+02:00</time>
      </trkpt>
      <trkpt lat="44.74594" lon="5.444">
        <ele>944</ele>
        <time>2017-05-15T15:05:37+02:00</time>
      </trkpt>
      <trkpt lat="44.74615" lon="5.44413">
        <ele>942</ele>
        <time>2017-05-15T15:05:50+02:00</time>
      </trkpt>
      <trkpt lat="44.74635" lon="5.44431">
        <ele>944</ele>
        <time>2017-05-15T15:06:22+02:00</time>
      </trkpt>
      <trkpt lat="44.74655" lon="5.44448">
        <ele>947</ele>
        <time>2017-05-15T15:06:58+02:00</time>
      </trkpt>
      <trkpt lat="44.74675" lon="5.44464">
        <ele>950</ele>
        <time>2017-05-15T15:07:18+02:00</time>
      </trkpt>
      <trkpt lat="44.74695" lon="5.44476">
        <ele>951</ele>
        <time>2017-05-15T15:07:54+02:00</time>
      </trkpt>
      <trkpt lat="44.74714" lon="5.44495">
        <ele>955</ele>
        <time>2017-05-15T15:08:21+02:00</time>
      </trkpt>
      <trkpt lat="44.74744" lon="5.44539">
        <ele>969</ele>
        <time>2017-05-15T15:09:30+02:00</time>
      </trkpt>
      <trkpt lat="44.74786" lon="5.4455">
        <ele>971</ele>
        <time>2017-05-15T15:11:00+02:00</time>
      </trkpt>
      <trkpt lat="44.7481" lon="5.44553">
        <ele>972</ele>
        <time>2017-05-15T15:11:32+02:00</time>
      </trkpt>
      <trkpt lat="44.74832" lon="5.44558">
        <ele>974</ele>
        <time>2017-05-15T15:12:04+02:00</time>
      </trkpt>
      <trkpt lat="44.74855" lon="5.44558">
        <ele>977</ele>
        <time>2017-05-15T15:12:32+02:00</time>
      </trkpt>
      <trkpt lat="44.74874" lon="5.4454">
        <ele>971</ele>
        <time>2017-05-15T15:12:49+02:00</time>
      </trkpt>
      <trkpt lat="44.74892" lon="5.44559">
        <ele>983</ele>
        <time>2017-05-15T15:13:21+02:00</time>
      </trkpt>
      <trkpt lat="44.74903" lon="5.44587">
        <ele>997</ele>
        <time>2017-05-15T15:14:44+02:00</time>
      </trkpt>
      <trkpt lat="44.74925" lon="5.44598">
        <ele>1006</ele>
        <time>2017-05-15T15:15:22+02:00</time>
      </trkpt>
      <trkpt lat="44.74937" lon="5.44571">
        <ele>1000</ele>
        <time>2017-05-15T15:16:04+02:00</time>
      </trkpt>
      <trkpt lat="44.74945" lon="5.44541">
        <ele>991</ele>
        <time>2017-05-15T15:16:38+02:00</time>
      </trkpt>
      <trkpt lat="44.7496" lon="5.44517">
        <ele>989</ele>
        <time>2017-05-15T15:16:57+02:00</time>
      </trkpt>
      <trkpt lat="44.74978" lon="5.44495">
        <ele>988</ele>
        <time>2017-05-15T15:17:23+02:00</time>
      </trkpt>
      <trkpt lat="44.75" lon="5.44492">
        <ele>997</ele>
        <time>2017-05-15T15:17:52+02:00</time>
      </trkpt>
      <trkpt lat="44.75023" lon="5.44485">
        <ele>1004</ele>
        <time>2017-05-15T15:18:20+02:00</time>
      </trkpt>
      <trkpt lat="44.75043" lon="5.44469">
        <ele>1007</ele>
        <time>2017-05-15T15:18:45+02:00</time>
      </trkpt>
      <trkpt lat="44.75065" lon="5.44458">
        <ele>1013</ele>
        <time>2017-05-15T15:19:24+02:00</time>
      </trkpt>
      <trkpt lat="44.75081" lon="5.44435">
        <ele>1013</ele>
        <time>2017-05-15T15:19:44+02:00</time>
      </trkpt>
      <trkpt lat="44.751" lon="5.44417">
        <ele>1010</ele>
        <time>2017-05-15T15:20:06+02:00</time>
      </trkpt>
      <trkpt lat="44.75146" lon="5.44421">
        <ele>1015</ele>
        <time>2017-05-15T15:21:05+02:00</time>
      </trkpt>
      <trkpt lat="44.75191" lon="5.44416">
        <ele>1008</ele>
        <time>2017-05-15T15:25:20+02:00</time>
      </trkpt>
      <trkpt lat="44.75214" lon="5.44416">
        <ele>1002</ele>
        <time>2017-05-15T15:27:43+02:00</time>
      </trkpt>
      <trkpt lat="44.75228" lon="5.44441">
        <ele>1009</ele>
        <time>2017-05-15T15:28:15+02:00</time>
      </trkpt>
      <trkpt lat="44.75243" lon="5.44466">
        <ele>1015</ele>
        <time>2017-05-15T15:28:48+02:00</time>
      </trkpt>
      <trkpt lat="44.75261" lon="5.44485">
        <ele>1020</ele>
        <time>2017-05-15T15:29:13+02:00</time>
      </trkpt>
      <trkpt lat="44.75286" lon="5.44492">
        <ele>1018</ele>
        <time>2017-05-15T15:29:44+02:00</time>
      </trkpt>
      <trkpt lat="44.75309" lon="5.44489">
        <ele>1013</ele>
        <time>2017-05-15T15:30:04+02:00</time>
      </trkpt>
      <trkpt lat="44.75332" lon="5.4449">
        <ele>1009</ele>
        <time>2017-05-15T15:30:21+02:00</time>
      </trkpt>
      <trkpt lat="44.75355" lon="5.44482">
        <ele>1009</ele>
        <time>2017-05-15T15:30:36+02:00</time>
      </trkpt>
      <trkpt lat="44.75369" lon="5.44456">
        <ele>1002</ele>
        <time>2017-05-15T15:31:03+02:00</time>
      </trkpt>
      <trkpt lat="44.75388" lon="5.44438">
        <ele>998</ele>
        <time>2017-05-15T15:31:29+02:00</time>
      </trkpt>
      <trkpt lat="44.75411" lon="5.44432">
        <ele>1000</ele>
        <time>2017-05-15T15:32:20+02:00</time>
      </trkpt>
      <trkpt lat="44.75421" lon="5.44371">
        <ele>985</ele>
        <time>2017-05-15T15:33:11+02:00</time>
      </trkpt>
      <trkpt lat="44.75439" lon="5.44351">
        <ele>983</ele>
        <time>2017-05-15T15:33:32+02:00</time>
      </trkpt>
      <trkpt lat="44.75447" lon="5.44321">
        <ele>977</ele>
        <time>2017-05-15T15:33:54+02:00</time>
      </trkpt>
      <trkpt lat="44.7547" lon="5.44318">
        <ele>981</ele>
        <time>2017-05-15T15:34:21+02:00</time>
      </trkpt>
      <trkpt lat="44.75493" lon="5.44307">
        <ele>984</ele>
        <time>2017-05-15T15:34:40+02:00</time>
      </trkpt>
      <trkpt lat="44.755" lon="5.44277">
        <ele>983</ele>
        <time>2017-05-15T15:35:02+02:00</time>
      </trkpt>
      <trkpt lat="44.75485" lon="5.44252">
        <ele>977</ele>
        <time>2017-05-15T15:35:27+02:00</time>
      </trkpt>
      <trkpt lat="44.75463" lon="5.44243">
        <ele>970</ele>
        <time>2017-05-15T15:35:54+02:00</time>
      </trkpt>
      <trkpt lat="44.75447" lon="5.44219">
        <ele>964</ele>
        <time>2017-05-15T15:36:12+02:00</time>
      </trkpt>
      <trkpt lat="44.75431" lon="5.44195">
        <ele>958</ele>
        <time>2017-05-15T15:36:39+02:00</time>
      </trkpt>
      <trkpt lat="44.75419" lon="5.44167">
        <ele>952</ele>
        <time>2017-05-15T15:37:07+02:00</time>
      </trkpt>
      <trkpt lat="44.75403" lon="5.44144">
        <ele>948</ele>
        <time>2017-05-15T15:37:34+02:00</time>
      </trkpt>
      <trkpt lat="44.75387" lon="5.44122">
        <ele>943</ele>
        <time>2017-05-15T15:38:18+02:00</time>
      </trkpt>
      <trkpt lat="44.75396" lon="5.44091">
        <ele>945</ele>
        <time>2017-05-15T15:38:51+02:00</time>
      </trkpt>
      <trkpt lat="44.75396" lon="5.44059">
        <ele>951</ele>
        <time>2017-05-15T15:39:24+02:00</time>
      </trkpt>
      <trkpt lat="44.75371" lon="5.44055">
        <ele>942</ele>
        <time>2017-05-15T15:39:42+02:00</time>
      </trkpt>
      <trkpt lat="44.75352" lon="5.44038">
        <ele>936</ele>
        <time>2017-05-15T15:40:05+02:00</time>
      </trkpt>
      <trkpt lat="44.75336" lon="5.44015">
        <ele>930</ele>
        <time>2017-05-15T15:40:23+02:00</time>
      </trkpt>
      <trkpt lat="44.75318" lon="5.43992">
        <ele>926</ele>
        <time>2017-05-15T15:40:58+02:00</time>
      </trkpt>
      <trkpt lat="44.753" lon="5.43969">
        <ele>924</ele>
        <time>2017-05-15T15:41:22+02:00</time>
      </trkpt>
      <trkpt lat="44.7528" lon="5.43953">
        <ele>919</ele>
        <time>2017-05-15T15:41:54+02:00</time>
      </trkpt>
      <trkpt lat="44.7526" lon="5.43936">
        <ele>914</ele>
        <time>2017-05-15T15:42:10+02:00</time>
      </trkpt>
      <trkpt lat="44.75246" lon="5.43911">
        <ele>911</ele>
        <time>2017-05-15T15:42:43+02:00</time>
      </trkpt>
      <trkpt lat="44.75229" lon="5.43885">
        <ele>906</ele>
        <time>2017-05-15T15:43:07+02:00</time>
      </trkpt>
      <trkpt lat="44.75209" lon="5.43871">
        <ele>896</ele>
        <time>2017-05-15T15:43:34+02:00</time>
      </trkpt>
      <trkpt lat="44.75204" lon="5.43839">
        <ele>895</ele>
        <time>2017-05-15T15:43:59+02:00</time>
      </trkpt>
      <trkpt lat="44.75194" lon="5.4381">
        <ele>889</ele>
        <time>2017-05-15T15:44:21+02:00</time>
      </trkpt>
      <trkpt lat="44.75186" lon="5.43779">
        <ele>886</ele>
        <time>2017-05-15T15:44:45+02:00</time>
      </trkpt>
      <trkpt lat="44.75176" lon="5.43751">
        <ele>879</ele>
        <time>2017-05-15T15:45:28+02:00</time>
      </trkpt>
      <trkpt lat="44.75171" lon="5.43719">
        <ele>874</ele>
        <time>2017-05-15T15:46:10+02:00</time>
      </trkpt>
      <trkpt lat="44.75165" lon="5.43688">
        <ele>869</ele>
        <time>2017-05-15T15:46:38+02:00</time>
      </trkpt>
      <trkpt lat="44.75163" lon="5.43656">
        <ele>865</ele>
        <time>2017-05-15T15:47:39+02:00</time>
      </trkpt>
      <trkpt lat="44.75173" lon="5.43628">
        <ele>868</ele>
        <time>2017-05-15T15:48:04+02:00</time>
      </trkpt>
      <trkpt lat="44.75172" lon="5.43596">
        <ele>862</ele>
        <time>2017-05-15T15:48:24+02:00</time>
      </trkpt>
      <trkpt lat="44.75162" lon="5.43568">
        <ele>852</ele>
        <time>2017-05-15T15:48:43+02:00</time>
      </trkpt>
      <trkpt lat="44.7517" lon="5.43537">
        <ele>849</ele>
        <time>2017-05-15T15:49:35+02:00</time>
      </trkpt>
      <trkpt lat="44.7519" lon="5.43517">
        <ele>852</ele>
        <time>2017-05-15T15:49:54+02:00</time>
      </trkpt>
      <trkpt lat="44.75206" lon="5.43493">
        <ele>852</ele>
        <time>2017-05-15T15:50:16+02:00</time>
      </trkpt>
      <trkpt lat="44.75213" lon="5.43462">
        <ele>847</ele>
        <time>2017-05-15T15:50:50+02:00</time>
      </trkpt>
      <trkpt lat="44.7522" lon="5.4343">
        <ele>842</ele>
        <time>2017-05-15T15:51:10+02:00</time>
      </trkpt>
      <trkpt lat="44.75228" lon="5.43401">
        <ele>840</ele>
        <time>2017-05-15T15:51:32+02:00</time>
      </trkpt>
      <trkpt lat="44.75238" lon="5.4337">
        <ele>838</ele>
        <time>2017-05-15T15:51:52+02:00</time>
      </trkpt>
      <trkpt lat="44.75239" lon="5.43337">
        <ele>831</ele>
        <time>2017-05-15T15:52:11+02:00</time>
      </trkpt>
      <trkpt lat="44.75246" lon="5.43306">
        <ele>829</ele>
        <time>2017-05-15T15:52:35+02:00</time>
      </trkpt>
      <trkpt lat="44.75255" lon="5.43276">
        <ele>827</ele>
        <time>2017-05-15T15:52:55+02:00</time>
      </trkpt>
      <trkpt lat="44.75268" lon="5.43248">
        <ele>828</ele>
        <time>2017-05-15T15:53:28+02:00</time>
      </trkpt>
      <trkpt lat="44.7529" lon="5.43246">
        <ele>836</ele>
        <time>2017-05-15T15:53:40+02:00</time>
      </trkpt>
      <trkpt lat="44.75283" lon="5.43215">
        <ele>829</ele>
        <time>2017-05-15T15:54:02+02:00</time>
      </trkpt>
      <trkpt lat="44.75277" lon="5.43184">
        <ele>822</ele>
        <time>2017-05-15T15:54:24+02:00</time>
      </trkpt>
      <trkpt lat="44.75271" lon="5.43154">
        <ele>815</ele>
        <time>2017-05-15T15:54:48+02:00</time>
      </trkpt>
      <trkpt lat="44.75275" lon="5.43121">
        <ele>811</ele>
        <time>2017-05-15T15:55:13+02:00</time>
      </trkpt>
      <trkpt lat="44.75277" lon="5.43089">
        <ele>807</ele>
        <time>2017-05-15T15:55:35+02:00</time>
      </trkpt>
      <trkpt lat="44.75285" lon="5.43059">
        <ele>806</ele>
        <time>2017-05-15T15:55:57+02:00</time>
      </trkpt>
      <trkpt lat="44.75291" lon="5.43028">
        <ele>804</ele>
        <time>2017-05-15T15:56:15+02:00</time>
      </trkpt>
      <trkpt lat="44.75297" lon="5.42997">
        <ele>801</ele>
        <time>2017-05-15T15:56:51+02:00</time>
      </trkpt>
      <trkpt lat="44.75295" lon="5.42965">
        <ele>798</ele>
        <time>2017-05-15T15:57:14+02:00</time>
      </trkpt>
      <trkpt lat="44.75288" lon="5.42933">
        <ele>792</ele>
        <time>2017-05-15T15:57:36+02:00</time>
      </trkpt>
      <trkpt lat="44.75282" lon="5.42901">
        <ele>788</ele>
        <time>2017-05-15T15:57:58+02:00</time>
      </trkpt>
      <trkpt lat="44.75251" lon="5.42857">
        <ele>780</ele>
        <time>2017-05-15T15:58:38+02:00</time>
      </trkpt>
      <trkpt lat="44.75228" lon="5.4285">
        <ele>775</ele>
        <time>2017-05-15T15:59:04+02:00</time>
      </trkpt>
      <trkpt lat="44.75206" lon="5.42847">
        <ele>768</ele>
        <time>2017-05-15T15:59:25+02:00</time>
      </trkpt>
      <trkpt lat="44.75188" lon="5.42825">
        <ele>764</ele>
        <time>2017-05-15T15:59:51+02:00</time>
      </trkpt>
      <trkpt lat="44.75175" lon="5.42798">
        <ele>760</ele>
        <time>2017-05-15T16:00:20+02:00</time>
      </trkpt>
      <trkpt lat="44.75178" lon="5.42767">
        <ele>760</ele>
        <time>2017-05-15T16:01:06+02:00</time>
      </trkpt>
      <trkpt lat="44.75193" lon="5.4274">
        <ele>761</ele>
        <time>2017-05-15T16:01:30+02:00</time>
      </trkpt>
      <trkpt lat="44.75211" lon="5.42717">
        <ele>763</ele>
        <time>2017-05-15T16:01:53+02:00</time>
      </trkpt>
      <trkpt lat="44.75215" lon="5.42686">
        <ele>761</ele>
        <time>2017-05-15T16:02:18+02:00</time>
      </trkpt>
      <trkpt lat="44.75187" lon="5.42678">
        <ele>752</ele>
        <time>2021-10-11T19:27:36+02:00</time>
      </trkpt>
      <trkpt lat="44.75167" lon="5.42642">
        <ele>745</ele>
        <time>2021-10-11T19:27:41+02:00</time>
      </trkpt>
      <trkpt lat="44.75146" lon="5.42618">
        <ele>739</ele>
        <time>2021-10-11T19:27:46+02:00</time>
      </trkpt>
      <trkpt lat="44.75128" lon="5.42594">
        <ele>734</ele>
        <time>2017-05-15T16:05:03+02:00</time>
      </trkpt>
      <trkpt lat="44.75111" lon="5.42573">
        <ele>730</ele>
        <time>2017-05-15T16:05:19+02:00</time>
      </trkpt>
      <trkpt lat="44.75093" lon="5.42553">
        <ele>725</ele>
        <time>2017-05-15T16:05:54+02:00</time>
      </trkpt>
      <trkpt lat="44.75071" lon="5.42543">
        <ele>720</ele>
        <time>2017-05-15T16:06:13+02:00</time>
      </trkpt>
      <trkpt lat="44.75059" lon="5.42515">
        <ele>719</ele>
        <time>2017-05-15T16:06:36+02:00</time>
      </trkpt>
      <trkpt lat="44.75054" lon="5.42483">
        <ele>720</ele>
        <time>2017-05-15T16:07:18+02:00</time>
      </trkpt>
      <trkpt lat="44.75059" lon="5.42452">
        <ele>721</ele>
        <time>2017-05-15T16:07:43+02:00</time>
      </trkpt>
      <trkpt lat="44.75056" lon="5.42421">
        <ele>721</ele>
        <time>2017-05-15T16:08:03+02:00</time>
      </trkpt>
      <trkpt lat="44.75071" lon="5.42395">
        <ele>722</ele>
        <time>2017-05-15T16:08:41+02:00</time>
      </trkpt>
      <trkpt lat="44.75075" lon="5.42362">
        <ele>721</ele>
        <time>2017-05-15T16:09:03+02:00</time>
      </trkpt>
      <trkpt lat="44.75074" lon="5.42329">
        <ele>721</ele>
        <time>2017-05-15T16:09:35+02:00</time>
      </trkpt>
      <trkpt lat="44.75079" lon="5.42299">
        <ele>724</ele>
        <time>2017-05-15T16:10:42+02:00</time>
      </trkpt>
      <trkpt lat="44.75082" lon="5.42265">
        <ele>727</ele>
        <time>2017-05-15T16:11:06+02:00</time>
      </trkpt>
      <trkpt lat="44.7509" lon="5.42234">
        <ele>729</ele>
        <time>2017-05-15T16:11:31+02:00</time>
      </trkpt>
      <trkpt lat="44.75087" lon="5.42203">
        <ele>731</ele>
        <time>2017-05-15T16:13:33+02:00</time>
      </trkpt>
      <trkpt lat="44.75083" lon="5.42171">
        <ele>733</ele>
        <time>2017-05-15T16:13:58+02:00</time>
      </trkpt>
      <trkpt lat="44.75062" lon="5.4216">
        <ele>734</ele>
        <time>2017-05-15T16:14:09+02:00</time>
      </trkpt>
      <trkpt lat="44.75042" lon="5.42143">
        <ele>735</ele>
        <time>2017-05-15T16:14:50+02:00</time>
      </trkpt>
      <trkpt lat="44.75022" lon="5.42158">
        <ele>738</ele>
        <time>2017-05-15T16:17:06+02:00</time>
      </trkpt>
      <trkpt lat="44.75" lon="5.42146">
        <ele>739</ele>
        <time>2017-05-15T16:17:53+02:00</time>
      </trkpt>
      <trkpt lat="44.75003" lon="5.42179">
        <ele>738</ele>
        <time>2017-05-15T16:20:24+02:00</time>
      </trkpt>
      <trkpt lat="44.75024" lon="5.42166">
        <ele>738</ele>
        <time>2017-05-15T16:21:22+02:00</time>
      </trkpt>
      <trkpt lat="44.7504" lon="5.42151">
        <ele>736</ele>
        <time>2017-05-15T16:27:48+02:00</time>
      </trkpt>
      <trkpt lat="44.75062" lon="5.42147">
        <ele>733</ele>
        <time>2017-05-15T16:30:14+02:00</time>
      </trkpt>
      <trkpt lat="44.75079" lon="5.42169">
        <ele>733</ele>
        <time>2017-05-15T16:30:36+02:00</time>
      </trkpt>
      <trkpt lat="44.75084" lon="5.422">
        <ele>731</ele>
        <time>2017-05-15T16:30:59+02:00</time>
      </trkpt>
      <trkpt lat="44.7509" lon="5.42223">
        <ele>730</ele>
        <time>2021-10-11T19:30:01+02:00</time>
      </trkpt>
      <trkpt lat="44.75081" lon="5.42267">
        <ele>727</ele>
        <time>2017-05-15T16:31:47+02:00</time>
      </trkpt>
      <trkpt lat="44.75076" lon="5.42295">
        <ele>724</ele>
        <time>2017-05-15T16:32:12+02:00</time>
      </trkpt>
      <trkpt lat="44.75076" lon="5.42327">
        <ele>721</ele>
        <time>2017-05-15T16:32:34+02:00</time>
      </trkpt>
      <trkpt lat="44.75075" lon="5.4236">
        <ele>721</ele>
        <time>2017-05-15T16:32:54+02:00</time>
      </trkpt>
      <trkpt lat="44.75068" lon="5.42391">
        <ele>722</ele>
        <time>2017-05-15T16:33:15+02:00</time>
      </trkpt>
      <trkpt lat="44.75056" lon="5.42419">
        <ele>721</ele>
        <time>2017-05-15T16:33:36+02:00</time>
      </trkpt>
      <trkpt lat="44.75044" lon="5.42447">
        <ele>719</ele>
        <time>2017-05-15T16:33:55+02:00</time>
      </trkpt>
      <trkpt lat="44.75034" lon="5.42475">
        <ele>716</ele>
        <time>2017-05-15T16:34:16+02:00</time>
      </trkpt>
      <trkpt lat="44.75029" lon="5.42506">
        <ele>712</ele>
        <time>2017-05-15T16:34:41+02:00</time>
      </trkpt>
      <trkpt lat="44.75018" lon="5.42535">
        <ele>705</ele>
        <time>2017-05-15T16:34:59+02:00</time>
      </trkpt>
      <trkpt lat="44.75026" lon="5.42566">
        <ele>703</ele>
        <time>2017-05-15T16:36:23+02:00</time>
      </trkpt>
      <trkpt lat="44.75039" lon="5.42593">
        <ele>704</ele>
        <time>2017-05-15T16:36:43+02:00</time>
      </trkpt>
      <trkpt lat="44.75051" lon="5.42611">
        <ele>706</ele>
        <time>2021-10-11T19:31:06+02:00</time>
      </trkpt>
      <trkpt lat="44.7504" lon="5.42626">
        <ele>702</ele>
        <time>2017-05-15T16:37:08+02:00</time>
      </trkpt>
      <trkpt lat="44.75019" lon="5.42638">
        <ele>694</ele>
        <time>2017-05-15T16:37:33+02:00</time>
      </trkpt>
      <trkpt lat="44.74997" lon="5.42642">
        <ele>687</ele>
        <time>2017-05-15T16:37:55+02:00</time>
      </trkpt>
      <trkpt lat="44.74974" lon="5.42648">
        <ele>682</ele>
        <time>2017-05-15T16:38:53+02:00</time>
      </trkpt>
      <trkpt lat="44.74956" lon="5.42668">
        <ele>677</ele>
        <time>2017-05-15T16:39:11+02:00</time>
      </trkpt>
      <trkpt lat="44.74938" lon="5.42688">
        <ele>673</ele>
        <time>2017-05-15T16:39:38+02:00</time>
      </trkpt>
      <trkpt lat="44.74928" lon="5.42717">
        <ele>670</ele>
        <time>2017-05-15T16:39:55+02:00</time>
      </trkpt>
      <trkpt lat="44.74914" lon="5.42742">
        <ele>666</ele>
        <time>2017-05-15T16:40:18+02:00</time>
      </trkpt>
      <trkpt lat="44.74913" lon="5.42774">
        <ele>667</ele>
        <time>2017-05-15T16:40:51+02:00</time>
      </trkpt>
      <trkpt lat="44.7492" lon="5.42805">
        <ele>670</ele>
        <time>2017-05-15T16:41:07+02:00</time>
      </trkpt>
      <trkpt lat="44.74901" lon="5.42824">
        <ele>668</ele>
        <time>2017-05-15T16:41:25+02:00</time>
      </trkpt>
      <trkpt lat="44.74884" lon="5.42845">
        <ele>666</ele>
        <time>2017-05-15T16:41:42+02:00</time>
      </trkpt>
      <trkpt lat="44.74864" lon="5.4286">
        <ele>664</ele>
        <time>2017-05-15T16:42:00+02:00</time>
      </trkpt>
      <trkpt lat="44.74844" lon="5.42876">
        <ele>661</ele>
        <time>2017-05-15T16:42:21+02:00</time>
      </trkpt>
      <trkpt lat="44.74825" lon="5.42893">
        <ele>659</ele>
        <time>2017-05-15T16:42:38+02:00</time>
      </trkpt>
      <trkpt lat="44.74802" lon="5.429">
        <ele>657</ele>
        <time>2017-05-15T16:43:02+02:00</time>
      </trkpt>
      <trkpt lat="44.74809" lon="5.4293">
        <ele>660</ele>
        <time>2017-05-15T16:43:21+02:00</time>
      </trkpt>
      <trkpt lat="44.74815" lon="5.42948">
        <ele>663</ele>
        <time>2021-10-11T19:32:36+02:00</time>
      </trkpt>
      <trkpt lat="44.748" lon="5.42961">
        <ele>663</ele>
        <time>2017-05-15T16:43:46+02:00</time>
      </trkpt>
      <trkpt lat="44.74781" lon="5.42945">
        <ele>660</ele>
        <time>2017-05-15T16:44:08+02:00</time>
      </trkpt>
      <trkpt lat="44.74758" lon="5.42938">
        <ele>657</ele>
        <time>2017-05-15T16:44:31+02:00</time>
      </trkpt>
      <trkpt lat="44.74735" lon="5.42946">
        <ele>656</ele>
        <time>2017-05-15T16:44:50+02:00</time>
      </trkpt>
      <trkpt lat="44.74712" lon="5.42949">
        <ele>655</ele>
        <time>2017-05-15T16:45:13+02:00</time>
      </trkpt>
      <trkpt lat="44.74691" lon="5.42962">
        <ele>654</ele>
        <time>2017-05-15T16:45:30+02:00</time>
      </trkpt>
      <trkpt lat="44.74668" lon="5.42962">
        <ele>652</ele>
        <time>2017-05-15T16:45:48+02:00</time>
      </trkpt>
      <trkpt lat="44.74652" lon="5.42985">
        <ele>651</ele>
        <time>2017-05-15T16:46:10+02:00</time>
      </trkpt>
      <trkpt lat="44.74653" lon="5.43017">
        <ele>654</ele>
        <time>2017-05-15T16:46:48+02:00</time>
      </trkpt>
      <trkpt lat="44.7465" lon="5.43049">
        <ele>654</ele>
        <time>2017-05-15T16:47:27+02:00</time>
      </trkpt>
      <trkpt lat="44.74656" lon="5.4308">
        <ele>656</ele>
        <time>2017-05-15T16:47:47+02:00</time>
      </trkpt>
      <trkpt lat="44.74658" lon="5.43112">
        <ele>659</ele>
        <time>2017-05-15T16:48:04+02:00</time>
      </trkpt>
      <trkpt lat="44.74648" lon="5.43141">
        <ele>660</ele>
        <time>2017-05-15T16:48:22+02:00</time>
      </trkpt>
      <trkpt lat="44.74648" lon="5.43173">
        <ele>663</ele>
        <time>2017-05-15T16:48:45+02:00</time>
      </trkpt>
      <trkpt lat="44.74646" lon="5.43205">
        <ele>664</ele>
        <time>2017-05-15T16:49:08+02:00</time>
      </trkpt>
      <trkpt lat="44.74639" lon="5.43235">
        <ele>665</ele>
        <time>2017-05-15T16:49:29+02:00</time>
      </trkpt>
      <trkpt lat="44.74627" lon="5.43264">
        <ele>666</ele>
        <time>2017-05-15T16:49:53+02:00</time>
      </trkpt>
      <trkpt lat="44.74608" lon="5.43282">
        <ele>665</ele>
        <time>2017-05-15T16:50:14+02:00</time>
      </trkpt>
      <trkpt lat="44.74586" lon="5.43271">
        <ele>663</ele>
        <time>2017-05-15T16:50:38+02:00</time>
      </trkpt>
      <trkpt lat="44.7457" lon="5.43248">
        <ele>663</ele>
        <time>2017-05-15T16:51:01+02:00</time>
      </trkpt>
      <trkpt lat="44.74549" lon="5.43236">
        <ele>665</ele>
        <time>2017-05-15T16:51:23+02:00</time>
      </trkpt>
    </trkseg>
  </trk>
</gpx>